createdAt,value
2022-11-05T00:00:36.569Z,9.00
2022-11-05T00:06:10.565Z,9.20
2022-11-05T00:08:57.637Z,8.90
2022-11-05T00:11:44.773Z,8.90
2022-11-05T00:14:29.919Z,9.00
2022-11-05T00:16:56.738Z,9.20
2022-11-05T00:19:23.554Z,9.00
2022-11-05T00:32:16.125Z,9.00
2022-11-05T00:39:37.276Z,9.00
2022-11-05T00:42:22.483Z,9.10
2022-11-05T00:45:01.183Z,9.00
2022-11-05T00:47:47.403Z,9.80
2022-11-05T00:50:14.654Z,9.00
2022-11-05T00:53:10.661Z,8.90
2022-11-05T00:55:40.986Z,8.90
2022-11-05T00:58:19.439Z,8.90
2022-11-05T01:00:50.775Z,8.90
2022-11-05T01:03:19.974Z,9.20
2022-11-05T01:05:52.568Z,9.40
2022-11-05T01:08:22.221Z,9.10
2022-11-05T01:10:52.682Z,8.80
2022-11-05T01:13:21.629Z,9.00
2022-11-05T01:15:51.067Z,8.90
2022-11-05T01:18:19.053Z,8.90
2022-11-05T01:23:14.077Z,8.70
2022-11-05T01:25:42.161Z,9.10
2022-11-05T01:28:09.770Z,8.90
2022-11-05T01:30:38.265Z,8.90
2022-11-05T01:33:05.543Z,8.90
2022-11-05T01:35:33.388Z,8.70
2022-11-05T01:38:00.813Z,9.10
2022-11-05T01:40:27.649Z,8.80
2022-11-05T01:42:54.537Z,8.90
2022-11-05T01:45:24.736Z,9.00
2022-11-05T01:47:58.549Z,9.00
2022-11-05T01:50:36.087Z,8.80
2022-11-05T01:53:10.075Z,8.90
2022-11-05T01:55:41.796Z,9.00
2022-11-05T01:58:12.910Z,8.80
2022-11-05T02:00:42.232Z,8.80
2022-11-05T02:03:09.893Z,8.80
2022-11-05T02:05:38.887Z,8.70
2022-11-05T02:08:06.468Z,8.90
2022-11-05T02:13:03.786Z,8.80
2022-11-05T02:15:43.354Z,8.90
2022-11-05T02:18:29.878Z,8.90
2022-11-05T02:21:35.567Z,8.80
2022-11-05T02:24:35.333Z,8.90
2022-11-05T02:27:02.408Z,8.80
2022-11-05T02:29:47.361Z,8.90
2022-11-05T02:32:35.923Z,8.90
2022-11-05T02:35:36.583Z,8.80
2022-11-05T02:38:17.143Z,8.90
2022-11-05T02:41:05.097Z,8.80
2022-11-05T02:43:51.177Z,8.80
2022-11-05T02:46:35.250Z,8.80
2022-11-05T02:49:32.328Z,8.70
2022-11-05T02:52:05.569Z,8.40
2022-11-05T02:54:38.307Z,8.70
2022-11-05T02:57:05.950Z,8.70
2022-11-05T03:02:02.814Z,8.80
2022-11-05T03:04:31.026Z,8.90
2022-11-05T03:07:31.637Z,9.00
2022-11-05T03:10:36.812Z,8.70
2022-11-05T03:13:23.843Z,8.70
2022-11-05T03:15:55.872Z,8.60
2022-11-05T03:18:38.069Z,8.70
2022-11-05T03:21:11.258Z,8.80
2022-11-05T03:23:49.384Z,8.60
2022-11-05T03:26:29.320Z,8.80
2022-11-05T03:29:35.286Z,8.70
2022-11-05T03:32:04.706Z,8.80
2022-11-05T03:34:43.717Z,8.80
2022-11-05T03:37:11.653Z,8.70
2022-11-05T03:39:43.412Z,8.60
2022-11-05T03:42:14.869Z,9.20
2022-11-05T03:44:49.330Z,8.80
2022-11-05T03:47:22.490Z,8.40
2022-11-05T03:50:14.593Z,8.80
2022-11-05T03:52:49.379Z,8.80
2022-11-05T03:55:16.713Z,8.70
2022-11-05T03:57:49.672Z,8.80
2022-11-05T04:13:26.949Z,8.80
2022-11-05T04:16:13.844Z,8.80
2022-11-05T04:18:41.238Z,8.60
2022-11-05T04:21:29.335Z,8.60
2022-11-05T04:24:08.591Z,8.70
2022-11-05T04:26:43.825Z,8.70
2022-11-05T04:29:29.521Z,8.60
2022-11-05T04:31:56.551Z,8.60
2022-11-05T04:34:23.866Z,8.60
2022-11-05T04:36:52.403Z,8.70
2022-11-05T04:39:20.821Z,8.70
2022-11-05T04:41:48.860Z,8.80
2022-11-05T04:44:16.849Z,8.70
2022-11-05T04:46:43.870Z,8.70
2022-11-05T04:49:10.725Z,8.70
2022-11-05T04:54:04.710Z,8.70
2022-11-05T04:56:31.625Z,8.70
2022-11-05T05:03:54.768Z,9.10
2022-11-05T05:06:22.741Z,8.70
2022-11-05T05:08:51.046Z,8.70
2022-11-05T05:11:20.267Z,9.20
2022-11-05T05:16:26.714Z,8.80
2022-11-05T05:18:54.332Z,8.80
2022-11-05T05:21:41.850Z,8.80
2022-11-05T05:24:10.835Z,8.80
2022-11-05T05:26:39.751Z,8.20
2022-11-05T05:29:07.176Z,8.70
2022-11-05T05:31:45.724Z,8.70
2022-11-05T05:34:14.274Z,8.70
2022-11-05T05:36:41.114Z,8.70
2022-11-05T05:39:10.876Z,8.70
2022-11-05T05:44:06.471Z,8.50
2022-11-05T05:46:33.271Z,8.70
2022-11-05T05:51:27.387Z,8.80
2022-11-05T05:56:21.865Z,8.70
2022-11-05T05:58:49.199Z,8.80
2022-11-05T06:01:19.763Z,8.70
2022-11-05T06:03:48.525Z,8.70
2022-11-05T06:06:19.732Z,8.70
2022-11-05T06:08:47.627Z,8.80
2022-11-05T06:13:41.632Z,8.70
2022-11-05T06:16:10.145Z,8.70
2022-11-05T06:18:37.832Z,9.00
2022-11-05T06:21:16.082Z,8.70
2022-11-05T06:23:45.323Z,8.80
2022-11-05T06:26:17.171Z,8.70
2022-11-05T06:28:44.755Z,9.10
2022-11-05T06:31:13.365Z,8.80
2022-11-05T06:36:15.402Z,8.80
2022-11-05T07:03:16.570Z,8.80
2022-11-05T07:05:49.326Z,8.80
2022-11-05T07:08:16.892Z,8.80
2022-11-05T07:10:44.013Z,8.60
2022-11-05T07:13:11.267Z,8.70
2022-11-05T07:18:07.690Z,8.90
2022-11-05T07:20:34.843Z,8.90
2022-11-05T07:23:06.821Z,8.70
2022-11-05T07:37:54.099Z,8.90
2022-11-05T07:42:52.187Z,8.70
2022-11-05T07:45:19.839Z,8.80
2022-11-05T07:50:19.764Z,9.00
2022-11-05T07:55:16.173Z,8.80
2022-11-05T07:57:51.045Z,8.80
2022-11-05T08:00:21.564Z,8.50
2022-11-05T08:03:22.195Z,8.70
2022-11-05T08:05:49.690Z,8.80
2022-11-05T08:08:18.721Z,8.80
2022-11-05T08:10:46.008Z,8.80
2022-11-05T08:15:42.245Z,8.90
2022-11-05T08:18:14.817Z,9.00
2022-11-05T08:20:43.110Z,8.90
2022-11-05T08:23:10.990Z,9.00
2022-11-05T08:30:35.094Z,9.00
2022-11-05T08:33:07.987Z,8.90
2022-11-05T08:35:36.993Z,9.20
2022-11-05T08:38:06.376Z,9.10
2022-11-05T08:40:35.461Z,9.20
2022-11-05T08:43:04.852Z,10.30
2022-11-05T08:48:04.518Z,12.20
2022-11-05T08:50:31.877Z,12.40
2022-11-05T08:52:59.075Z,12.30
2022-11-05T08:58:04.567Z,12.30
2022-11-05T09:00:33.744Z,12.20
2022-11-05T09:03:01.663Z,11.70
2022-11-05T09:05:29.930Z,11.70
2022-11-05T09:30:11.776Z,11.00
2022-11-05T09:35:07.846Z,10.60
2022-11-05T09:42:39.247Z,10.60
2022-11-05T09:45:12.951Z,10.60
2022-11-05T09:47:47.597Z,10.50
2022-11-05T09:50:19.314Z,10.60
2022-11-05T09:55:51.777Z,10.50
2022-11-05T09:58:28.956Z,10.60
2022-11-05T10:00:57.382Z,10.60
2022-11-05T10:03:26.641Z,10.40
2022-11-05T10:05:55.997Z,10.50
2022-11-05T10:08:29.327Z,10.70
2022-11-05T10:11:04.966Z,10.60
2022-11-05T10:13:38.084Z,10.80
2022-11-05T10:23:34.968Z,10.60
2022-11-05T10:26:13.236Z,10.70
2022-11-05T10:31:21.098Z,10.70
2022-11-05T10:34:00.147Z,10.80
2022-11-05T10:36:32.724Z,10.70
2022-11-05T10:39:12.372Z,10.80
2022-11-05T10:42:20.327Z,10.80
2022-11-05T10:44:53.282Z,10.70
2022-11-05T10:47:51.981Z,10.80
2022-11-05T10:50:26.257Z,10.90
2022-11-05T10:55:30.285Z,10.70
2022-11-05T10:58:29.321Z,10.90
2022-11-05T11:00:56.143Z,11.30
2022-11-05T11:03:35.276Z,11.00
2022-11-05T11:06:05.313Z,10.70
2022-11-05T11:08:35.857Z,10.80
2022-11-05T11:11:06.206Z,10.80
2022-11-05T11:14:04.700Z,10.90
2022-11-05T11:16:37.890Z,10.20
2022-11-05T11:19:24.984Z,10.90
2022-11-05T11:22:13.639Z,10.80
2022-11-05T11:24:49.572Z,10.90
2022-11-05T11:27:27.954Z,10.90
2022-11-05T11:30:02.412Z,10.80
2022-11-05T11:32:40.042Z,10.90
2022-11-05T11:35:18.623Z,11.00
2022-11-05T11:37:46.630Z,11.10
2022-11-05T11:40:17.770Z,10.90
2022-11-05T11:42:47.304Z,10.90
2022-11-05T11:45:32.647Z,10.90
2022-11-05T11:48:02.979Z,10.80
2022-11-05T11:50:35.689Z,10.90
2022-11-05T11:53:20.797Z,10.90
2022-11-05T11:56:06.606Z,10.90
2022-11-05T11:58:40.733Z,12.40
2022-11-05T12:01:34.721Z,11.80
2022-11-05T12:04:36.619Z,11.50
2022-11-05T12:07:17.064Z,11.30
2022-11-05T12:10:08.121Z,11.20
2022-11-05T12:12:59.204Z,11.00
2022-11-05T12:15:41.061Z,11.10
2022-11-05T12:18:27.531Z,11.20
2022-11-05T12:21:48.139Z,11.00
2022-11-05T12:24:32.405Z,11.20
2022-11-05T12:26:59.086Z,11.00
2022-11-05T12:29:52.331Z,11.00
2022-11-05T12:32:48.075Z,11.00
2022-11-05T12:35:57.396Z,11.10
2022-11-05T12:38:49.753Z,11.10
2022-11-05T12:41:28.721Z,11.00
2022-11-05T12:44:24.786Z,11.00
2022-11-05T12:47:16.073Z,10.90
2022-11-05T12:49:59.952Z,11.00
2022-11-05T12:52:58.689Z,11.00
2022-11-05T12:55:29.917Z,12.60
2022-11-05T12:58:04.489Z,10.90
2022-11-05T13:03:22.492Z,11.00
2022-11-05T13:06:15.621Z,10.90
2022-11-05T13:09:06.681Z,10.80
2022-11-05T13:11:53.677Z,10.80
2022-11-05T13:17:10.903Z,11.40
2022-11-05T13:20:06.143Z,10.80
2022-11-05T13:22:37.562Z,10.80
2022-11-05T13:25:25.373Z,10.90
2022-11-05T13:28:23.233Z,10.80
2022-11-05T13:30:54.898Z,10.80
2022-11-05T13:33:26.595Z,10.90
2022-11-05T13:36:35.868Z,10.80
2022-11-05T13:39:16.891Z,10.60
2022-11-05T13:42:04.772Z,10.80
2022-11-05T13:45:07.926Z,10.70
2022-11-05T13:47:52.669Z,10.60
2022-11-05T13:50:38.013Z,10.70
